Wetterdaten: Woche 26.11.07 - 02.12.07 (KW48)
Datum Zeit Temperatur Luftfeuchte Luftdruck Niederschlag Wind Richtung Sonnenschein Solar Taupunkt Windchill Windben
26.11.2007 00:00 5.0 C 80 % 1025.3 hPa 0.0 l/m 11.3 km/h (2 Bft) W 0.00 h 0 W/m 1.7 C 2.4 C 16.9 km/h (3 Bft)
26.11.2007 01:00 5.0 C 81 % 1025.3 hPa 0.0 l/m 13.5 km/h (3 Bft) W 0.00 h 0 W/m 2.0 C 2.0 C 19.8 km/h (3 Bft)
26.11.2007 02:00 4.9 C 81 % 1025.6 hPa 0.0 l/m 13.1 km/h (3 Bft) W 0.00 h 0 W/m 2.0 C 2.0 C 20.2 km/h (4 Bft)
26.11.2007 03:00 4.7 C 81 % 1025.7 hPa 0.0 l/m 10.6 km/h (2 Bft) W 0.00 h 0 W/m 1.8 C 2.2 C 15.8 km/h (3 Bft)
26.11.2007 04:00 4.6 C 83 % 1025.8 hPa 0.0 l/m 10.0 km/h (2 Bft) W 0.00 h 0 W/m 2.0 C 2.3 C 14.9 km/h (3 Bft)
26.11.2007 05:00 4.6 C 84 % 1025.8 hPa 0.0 l/m 9.6 km/h (2 Bft) W 0.00 h 0 W/m 2.1 C 2.4 C 14.5 km/h (3 Bft)
26.11.2007 06:00 4.6 C 82 % 1025.9 hPa 0.0 l/m 11.8 km/h (2 Bft) W 0.00 h 0 W/m 1.7 C 1.9 C 18.1 km/h (3 Bft)
26.11.2007 07:00 4.6 C 78 % 1026.5 hPa 0.0 l/m 13.5 km/h (3 Bft) W 0.00 h 5 W/m 1.1 C 1.6 C 20.1 km/h (4 Bft)
26.11.2007 08:00 4.5 C 78 % 1027.0 hPa 0.0 l/m 11.5 km/h (2 Bft) W 0.02 h 28 W/m 1.0 C 1.8 C 17.8 km/h (3 Bft)
26.11.2007 09:00 4.5 C 79 % 1027.4 hPa 0.0 l/m 13.3 km/h (3 Bft) W 0.12 h 73 W/m 1.2 C 1.5 C 19.0 km/h (3 Bft)
26.11.2007 10:00 4.6 C 81 % 1028.0 hPa 0.0 l/m 12.9 km/h (3 Bft) W 0.12 h 114 W/m 1.6 C 1.6 C 19.8 km/h (4 Bft)
26.11.2007 11:00 4.9 C 80 % 1028.2 hPa 0.0 l/m 12.5 km/h (3 Bft) W 0.10 h 130 W/m 1.7 C 2.1 C 18.9 km/h (3 Bft)
26.11.2007 12:00 5.7 C 74 % 1028.1 hPa 0.0 l/m 11.8 km/h (2 Bft) W 0.55 h 250 W/m 1.4 C 3.2 C 18.5 km/h (3 Bft)
26.11.2007 13:00 4.8 C 76 % 1028.0 hPa 0.2 l/m 12.3 km/h (3 Bft) W 0.02 h 97 W/m 0.8 C 2.1 C 18.5 km/h (3 Bft)
26.11.2007 14:00 4.5 C 82 % 1028.2 hPa 0.0 l/m 3.8 km/h (1 Bft) W 0.08 h 83 W/m 1.7 C 4.1 C 6.4 km/h (2 Bft)
26.11.2007 15:00 5.0 C 78 % 1028.2 hPa 0.0 l/m 5.7 km/h (1 Bft) W-NW 0.00 h 25 W/m 1.4 C 3.9 C 8.7 km/h (2 Bft)
26.11.2007 16:00 5.0 C 75 % 1028.5 hPa 0.0 l/m 9.1 km/h (2 Bft) W-NW 0.00 h 10 W/m 1.0 C 3.0 C 13.9 km/h (3 Bft)
26.11.2007 17:00 4.8 C 77 % 1028.9 hPa 0.0 l/m 4.7 km/h (1 Bft) W-NW 0.00 h 0 W/m 1.1 C 4.0 C 7.3 km/h (2 Bft)
26.11.2007 18:00 4.5 C 77 % 1029.3 hPa 0.0 l/m 9.6 km/h (2 Bft) W 0.00 h 0 W/m 0.8 C 2.2 C 14.9 km/h (3 Bft)
26.11.2007 19:00 4.0 C 79 % 1029.7 hPa 0.0 l/m 7.6 km/h (2 Bft) W-NW 0.00 h 0 W/m 0.7 C 2.2 C 11.4 km/h (2 Bft)
26.11.2007 20:00 3.8 C 80 % 1029.8 hPa 0.0 l/m 8.4 km/h (2 Bft) W-NW 0.00 h 0 W/m 0.7 C 1.7 C 12.8 km/h (3 Bft)
26.11.2007 21:00 3.2 C 82 % 1029.9 hPa 0.0 l/m 4.0 km/h (1 Bft) NW 0.00 h 0 W/m 0.5 C 2.6 C 6.4 km/h (2 Bft)
26.11.2007 22:00 2.5 C 83 % 1029.9 hPa 0.0 l/m 3.9 km/h (1 Bft) S 0.00 h 0 W/m -0.1 C 1.8 C 7.1 km/h (2 Bft)
26.11.2007 23:00 2.2 C 85 % 1030.0 hPa 0.0 l/m 1.3 km/h (1 Bft) SW 0.00 h 0 W/m -0.1 C 2.2 C 2.8 km/h (1 Bft)
27.11.2007 00:00 1.3 C 84 % 1029.7 hPa 0.0 l/m 1.9 km/h (1 Bft) S 0.00 h 0 W/m -1.1 C 1.1 C 3.5 km/h (1 Bft)
27.11.2007 01:00 0.5 C 87 % 1029.6 hPa 0.0 l/m 2.3 km/h (1 Bft) O-SO 0.00 h 0 W/m -1.5 C 0.3 C 3.7 km/h (1 Bft)
27.11.2007 02:00 -0.1 C 88 % 1029.9 hPa 0.0 l/m 3.6 km/h (1 Bft) O-SO 0.00 h 0 W/m -1.8 C -0.7 C 5.4 km/h (1 Bft)
27.11.2007 03:00 -0.6 C 90 % 1030.1 hPa 0.0 l/m 3.7 km/h (1 Bft) O-SO 0.00 h 0 W/m -2.1 C -1.3 C 5.5 km/h (1 Bft)
27.11.2007 04:00 -0.9 C 90 % 1030.0 hPa 0.0 l/m 3.1 km/h (1 Bft) SO 0.00 h 0 W/m -2.3 C -1.3 C 4.6 km/h (1 Bft)
27.11.2007 05:00 -1.4 C 91 % 1030.0 hPa 0.0 l/m 2.6 km/h (1 Bft) O-SO 0.00 h 0 W/m -2.6 C -1.7 C 3.9 km/h (1 Bft)
27.11.2007 06:00 -1.7 C 92 % 1030.1 hPa 0.0 l/m 3.3 km/h (1 Bft) SO 0.00 h 0 W/m -2.8 C -2.2 C 4.8 km/h (1 Bft)
27.11.2007 07:00 -1.9 C 93 % 1030.4 hPa 0.0 l/m 2.3 km/h (1 Bft) O-SO 0.00 h 8 W/m -2.9 C -2.3 C 3.3 km/h (1 Bft)
27.11.2007 08:00 -1.9 C 93 % 1030.5 hPa 0.0 l/m 0.6 km/h (0 Bft) O-SO 0.50 h 39 W/m -2.9 C -1.9 C 1.4 km/h (1 Bft)
27.11.2007 09:00 -0.8 C 92 % 1030.4 hPa 0.0 l/m 0.0 km/h (0 Bft) N 0.60 h 113 W/m -1.9 C -0.8 C 0.2 km/h (0 Bft)
27.11.2007 10:00 0.6 C 87 % 1030.4 hPa 0.0 l/m 0.4 km/h (0 Bft) O-SO 0.42 h 143 W/m -1.3 C 0.6 C 1.1 km/h (1 Bft)
27.11.2007 11:00 2.7 C 80 % 1030.0 hPa 0.0 l/m 0.4 km/h (0 Bft) O-SO 1.00 h 301 W/m -0.5 C 2.7 C 1.6 km/h (1 Bft)
27.11.2007 12:00 4.4 C 73 % 1029.4 hPa 0.0 l/m 1.0 km/h (0 Bft) N 1.00 h 303 W/m -0.0 C 4.4 C 2.6 km/h (1 Bft)
27.11.2007 13:00 5.6 C 69 % 1028.5 hPa 0.0 l/m 0.5 km/h (0 Bft) NW 1.00 h 295 W/m 0.3 C 5.6 C 1.7 km/h (1 Bft)
27.11.2007 14:00 6.5 C 65 % 1028.2 hPa 0.0 l/m 3.1 km/h (1 Bft) NW 0.90 h 217 W/m 0.5 C 6.3 C 5.3 km/h (1 Bft)
27.11.2007 15:00 5.8 C 69 % 1028.1 hPa 0.0 l/m 0.7 km/h (0 Bft) W-NW 0.07 h 53 W/m 0.5 C 5.8 C 1.6 km/h (1 Bft)
27.11.2007 16:00 4.6 C 72 % 1028.2 hPa 0.0 l/m 1.1 km/h (0 Bft) O 0.03 h 12 W/m -0.1 C 4.6 C 2.8 km/h (1 Bft)
27.11.2007 17:00 3.9 C 73 % 1028.7 hPa 0.0 l/m 1.7 km/h (1 Bft) O-NO 0.00 h 0 W/m -0.6 C 3.9 C 4.0 km/h (1 Bft)
27.11.2007 18:00 2.4 C 78 % 1028.7 hPa 0.0 l/m 1.1 km/h (0 Bft) O 0.00 h 0 W/m -1.0 C 2.4 C 3.0 km/h (1 Bft)
27.11.2007 19:00 1.4 C 82 % 1029.1 hPa 0.0 l/m 0.8 km/h (0 Bft) SO 0.00 h 0 W/m -1.2 C 1.4 C 2.1 km/h (1 Bft)
27.11.2007 20:00 0.6 C 86 % 1029.2 hPa 0.0 l/m 0.5 km/h (0 Bft) O-SO 0.00 h 0 W/m -1.5 C 0.6 C 1.8 km/h (1 Bft)
27.11.2007 21:00 0.4 C 86 % 1028.9 hPa 0.0 l/m 0.7 km/h (0 Bft) N 0.00 h 0 W/m -1.7 C 0.4 C 1.9 km/h (1 Bft)
27.11.2007 22:00 -0.2 C 88 % 1028.3 hPa 0.0 l/m 0.6 km/h (0 Bft) W-NW 0.00 h 0 W/m -1.9 C -0.2 C 1.8 km/h (1 Bft)
27.11.2007 23:00 -0.6 C 89 % 1027.7 hPa 0.0 l/m 0.4 km/h (0 Bft) W-NW 0.00 h 0 W/m -2.2 C -0.6 C 1.1 km/h (1 Bft)
28.11.2007 00:00 -1.1 C 90 % 1027.3 hPa 0.0 l/m 0.4 km/h (0 Bft) W-NW 0.00 h 0 W/m -2.5 C -1.1 C 1.2 km/h (1 Bft)
28.11.2007 01:00 -1.4 C 91 % 1026.7 hPa 0.0 l/m 0.6 km/h (0 Bft) W-NW 0.00 h 0 W/m -2.8 C -1.4 C 1.0 km/h (0 Bft)
28.11.2007 02:00 -1.6 C 91 % 1026.3 hPa 0.0 l/m 0.4 km/h (0 Bft) N-NO 0.00 h 0 W/m -2.8 C -1.6 C 1.2 km/h (1 Bft)
28.11.2007 03:00 -2.0 C 93 % 1026.0 hPa 0.0 l/m 0.1 km/h (0 Bft) N-NO 0.00 h 0 W/m -3.0 C -2.0 C 0.4 km/h (0 Bft)
28.11.2007 04:00 -2.1 C 93 % 1025.7 hPa 0.0 l/m 0.1 km/h (0 Bft) N-NO 0.00 h 0 W/m -3.0 C -2.1 C 0.2 km/h (0 Bft)
28.11.2007 05:00 -2.5 C 94 % 1025.4 hPa 0.0 l/m 0.5 km/h (0 Bft) N-NO 0.00 h 0 W/m -3.3 C -2.5 C 1.4 km/h (1 Bft)
28.11.2007 06:00 -2.5 C 95 % 1025.4 hPa 0.0 l/m 0.1 km/h (0 Bft) O 0.00 h 0 W/m -3.2 C -2.5 C 0.5 km/h (0 Bft)
28.11.2007 07:00 -2.6 C 94 % 1025.4 hPa 0.0 l/m 0.0 km/h (0 Bft) N 0.00 h 6 W/m -3.4 C -2.6 C 0.0 km/h (0 Bft)
28.11.2007 08:00 -2.6 C 95 % 1025.3 hPa 0.0 l/m 2.2 km/h (1 Bft) O 0.02 h 18 W/m -3.3 C -2.8 C 3.5 km/h (1 Bft)
28.11.2007 09:00 -0.5 C 89 % 1024.8 hPa 0.0 l/m 1.0 km/h (0 Bft) O 0.47 h 104 W/m -2.1 C -0.5 C 2.1 km/h (1 Bft)
28.11.2007 10:00 1.5 C 80 % 1024.4 hPa 0.0 l/m 1.8 km/h (1 Bft) O-SO 0.43 h 156 W/m -1.7 C 1.5 C 3.7 km/h (1 Bft)
28.11.2007 11:00 2.8 C 74 % 1023.4 hPa 0.0 l/m 4.8 km/h (1 Bft) O-SO 1.00 h 312 W/m -1.3 C 1.8 C 7.2 km/h (2 Bft)
28.11.2007 12:00 3.7 C 72 % 1022.1 hPa 0.0 l/m 6.4 km/h (2 Bft) SO 1.00 h 296 W/m -0.8 C 2.2 C 10.1 km/h (2 Bft)
28.11.2007 13:00 4.6 C 69 % 1020.8 hPa 0.0 l/m 5.3 km/h (1 Bft) SO 1.00 h 271 W/m -0.5 C 3.7 C 8.6 km/h (2 Bft)
28.11.2007 14:00 4.7 C 68 % 1019.8 hPa 0.0 l/m 6.3 km/h (2 Bft) SO 0.85 h 177 W/m -0.7 C 3.4 C 9.3 km/h (2 Bft)
28.11.2007 15:00 4.4 C 70 % 1019.5 hPa 0.0 l/m 4.5 km/h (1 Bft) SO 0.77 h 87 W/m -0.5 C 3.7 C 7.0 km/h (2 Bft)
28.11.2007 16:00 2.3 C 78 % 1019.5 hPa 0.0 l/m 3.5 km/h (1 Bft) SO 0.03 h 16 W/m -1.1 C 1.9 C 5.0 km/h (1 Bft)
28.11.2007 17:00 1.0 C 82 % 1019.7 hPa 0.0 l/m 3.5 km/h (1 Bft) SO 0.00 h 0 W/m -1.7 C 0.3 C 4.6 km/h (1 Bft)
28.11.2007 18:00 0.6 C 85 % 1019.8 hPa 0.0 l/m 3.0 km/h (1 Bft) O-SO 0.00 h 0 W/m -1.7 C 0.5 C 4.9 km/h (1 Bft)
28.11.2007 19:00 -0.2 C 87 % 1020.0 hPa 0.0 l/m 1.5 km/h (1 Bft) O-SO 0.00 h 0 W/m -2.1 C -0.2 C 2.8 km/h (1 Bft)
28.11.2007 20:00 -0.7 C 89 % 1019.7 hPa 0.0 l/m 2.4 km/h (1 Bft) O-SO 0.00 h 0 W/m -2.3 C -0.9 C 3.6 km/h (1 Bft)
28.11.2007 21:00 -1.2 C 90 % 1019.4 hPa 0.0 l/m 4.3 km/h (1 Bft) O-SO 0.00 h 0 W/m -2.6 C -2.0 C 5.6 km/h (1 Bft)
28.11.2007 22:00 -1.4 C 91 % 1018.9 hPa 0.0 l/m 3.2 km/h (1 Bft) O 0.00 h 0 W/m -2.7 C -2.0 C 4.4 km/h (1 Bft)
28.11.2007 23:00 -2.0 C 93 % 1018.5 hPa 0.0 l/m 1.7 km/h (1 Bft) O 0.00 h 0 W/m -3.0 C -2.0 C 2.8 km/h (1 Bft)
29.11.2007 00:00 -2.7 C 94 % 1018.1 hPa 0.0 l/m 1.9 km/h (1 Bft) O 0.00 h 0 W/m -3.6 C -2.7 C 2.9 km/h (1 Bft)
29.11.2007 01:00 -2.0 C 94 % 1017.8 hPa 0.0 l/m 1.1 km/h (1 Bft) O 0.00 h 0 W/m -2.8 C -2.0 C 2.1 km/h (1 Bft)
29.11.2007 02:00 -1.5 C 95 % 1017.3 hPa 0.0 l/m 0.1 km/h (0 Bft) O-SO 0.00 h 0 W/m -2.2 C -1.5 C 0.3 km/h (0 Bft)
29.11.2007 03:00 -1.4 C 95 % 1017.3 hPa 0.0 l/m 1.0 km/h (0 Bft) S-SO 0.00 h 0 W/m -2.1 C -1.4 C 3.1 km/h (1 Bft)
29.11.2007 04:00 -1.4 C 95 % 1017.0 hPa 0.0 l/m 1.0 km/h (0 Bft) SW 0.00 h 0 W/m -2.1 C -1.4 C 2.7 km/h (1 Bft)
29.11.2007 05:00 -1.4 C 95 % 1017.0 hPa 0.0 l/m 1.0 km/h (0 Bft) W-SW 0.00 h 0 W/m -2.1 C -1.4 C 2.6 km/h (1 Bft)
29.11.2007 06:00 -1.5 C 95 % 1017.1 hPa 0.0 l/m 0.6 km/h (0 Bft) SW 0.00 h 0 W/m -2.2 C -1.5 C 2.2 km/h (1 Bft)
29.11.2007 07:00 -1.7 C 95 % 1017.0 hPa 0.0 l/m 1.2 km/h (1 Bft) W-SW 0.00 h 0 W/m -2.4 C -1.7 C 3.0 km/h (1 Bft)
29.11.2007 08:00 -1.7 C 96 % 1017.4 hPa 0.0 l/m 1.4 km/h (1 Bft) S-SW 0.00 h 15 W/m -2.2 C -1.7 C 4.0 km/h (1 Bft)
29.11.2007 09:00 -1.3 C 95 % 1017.5 hPa 0.0 l/m 2.1 km/h (1 Bft) SW 0.00 h 45 W/m -2.0 C -1.4 C 4.8 km/h (1 Bft)
29.11.2007 10:00 -0.9 C 93 % 1017.4 hPa 0.0 l/m 2.7 km/h (1 Bft) S 0.00 h 87 W/m -1.9 C -1.3 C 5.4 km/h (1 Bft)
29.11.2007 11:00 -0.6 C 92 % 1017.1 hPa 0.0 l/m 2.9 km/h (1 Bft) SW 0.00 h 108 W/m -1.7 C -0.9 C 5.7 km/h (1 Bft)
29.11.2007 12:00 0.1 C 89 % 1016.4 hPa 0.0 l/m 3.0 km/h (1 Bft) S 0.58 h 219 W/m -1.4 C -0.2 C 6.0 km/h (2 Bft)
29.11.2007 13:00 0.7 C 87 % 1015.8 hPa 0.0 l/m 1.9 km/h (1 Bft) SW 0.77 h 219 W/m -1.2 C 0.6 C 4.4 km/h (1 Bft)
29.11.2007 14:00 1.0 C 87 % 1015.4 hPa 0.0 l/m 3.7 km/h (1 Bft) S-SO 1.00 h 167 W/m -1.0 C 0.4 C 7.0 km/h (2 Bft)
29.11.2007 15:00 0.8 C 88 % 1015.5 hPa 0.0 l/m 3.4 km/h (1 Bft) S-SO 0.17 h 67 W/m -0.9 C 0.5 C 6.5 km/h (2 Bft)
29.11.2007 16:00 0.4 C 90 % 1015.8 hPa 0.0 l/m 3.0 km/h (1 Bft) S 0.22 h 18 W/m -1.0 C 0.0 C 6.3 km/h (2 Bft)
29.11.2007 17:00 0.1 C 93 % 1016.3 hPa 0.0 l/m 4.0 km/h (1 Bft) S-SO 0.00 h 0 W/m -0.9 C -0.7 C 7.5 km/h (2 Bft)
29.11.2007 18:00 0.5 C 93 % 1017.0 hPa 0.0 l/m 4.1 km/h (1 Bft) S-SO 0.00 h 0 W/m -0.5 C -0.3 C 7.3 km/h (2 Bft)
29.11.2007 19:00 0.5 C 93 % 1017.2 hPa 0.0 l/m 4.4 km/h (1 Bft) S-SO 0.00 h 0 W/m -0.5 C -0.5 C 7.9 km/h (2 Bft)
29.11.2007 20:00 0.4 C 93 % 1017.1 hPa 0.0 l/m 3.3 km/h (1 Bft) S 0.00 h 0 W/m -0.6 C -0.1 C 6.4 km/h (2 Bft)
29.11.2007 21:00 0.5 C 93 % 1016.9 hPa 0.0 l/m 2.6 km/h (1 Bft) S-SO 0.00 h 0 W/m -0.6 C 0.0 C 5.3 km/h (1 Bft)
29.11.2007 22:00 0.5 C 92 % 1016.4 hPa 0.0 l/m 2.3 km/h (1 Bft) S 0.00 h 0 W/m -0.6 C 0.2 C 5.0 km/h (1 Bft)
29.11.2007 23:00 0.4 C 93 % 1015.9 hPa 0.0 l/m 2.7 km/h (1 Bft) S-SW 0.00 h 0 W/m -0.6 C 0.1 C 5.6 km/h (1 Bft)
30.11.2007 00:00 0.7 C 93 % 1015.5 hPa 0.0 l/m 3.2 km/h (1 Bft) S 0.00 h 0 W/m -0.3 C 0.4 C 6.4 km/h (2 Bft)
30.11.2007 01:00 0.8 C 93 % 1015.0 hPa 0.0 l/m 6.3 km/h (2 Bft) S-SO 0.00 h 0 W/m -0.2 C -0.9 C 11.5 km/h (2 Bft)
30.11.2007 02:00 1.2 C 92 % 1015.0 hPa 0.0 l/m 3.9 km/h (1 Bft) S-SO 0.00 h 0 W/m -0.0 C 0.4 C 7.5 km/h (2 Bft)
30.11.2007 03:00 1.6 C 90 % 1015.2 hPa 0.0 l/m 3.9 km/h (1 Bft) S-SO 0.00 h 0 W/m 0.1 C 0.9 C 7.6 km/h (2 Bft)
30.11.2007 04:00 2.0 C 89 % 1015.2 hPa 0.0 l/m 3.3 km/h (1 Bft) S-SO 0.00 h 0 W/m 0.4 C 1.6 C 6.8 km/h (2 Bft)
30.11.2007 05:00 2.4 C 90 % 1015.3 hPa 0.2 l/m 2.9 km/h (1 Bft) S-SO 0.00 h 0 W/m 1.0 C 2.2 C 5.5 km/h (1 Bft)
30.11.2007 06:00 2.5 C 93 % 1015.7 hPa 0.0 l/m 1.8 km/h (1 Bft) S-SO 0.00 h 0 W/m 1.5 C 2.5 C 3.5 km/h (1 Bft)
30.11.2007 07:00 2.8 C 94 % 1016.0 hPa 0.2 l/m 2.9 km/h (1 Bft) SO 0.00 h 0 W/m 1.9 C 2.6 C 5.6 km/h (1 Bft)
30.11.2007 08:00 3.0 C 95 % 1016.2 hPa 0.0 l/m 1.0 km/h (0 Bft) S 0.00 h 9 W/m 2.2 C 3.0 C 3.1 km/h (1 Bft)
30.11.2007 09:00 3.3 C 93 % 1016.7 hPa 0.2 l/m 2.0 km/h (1 Bft) S-SO 0.00 h 14 W/m 2.3 C 3.3 C 3.8 km/h (1 Bft)
30.11.2007 10:00 3.5 C 96 % 1016.7 hPa 0.0 l/m 1.5 km/h (1 Bft) S-SO 0.00 h 36 W/m 2.8 C 3.5 C 3.5 km/h (1 Bft)
30.11.2007 11:00 4.1 C 93 % 1016.4 hPa 0.0 l/m 1.3 km/h (1 Bft) S-SO 0.00 h 43 W/m 3.1 C 4.1 C 2.9 km/h (1 Bft)
30.11.2007 12:00 4.6 C 90 % 1016.1 hPa 0.0 l/m 1.3 km/h (1 Bft) SO 0.00 h 41 W/m 3.2 C 4.6 C 2.9 km/h (1 Bft)
30.11.2007 13:00 4.9 C 90 % 1016.3 hPa 0.0 l/m 1.3 km/h (1 Bft) W-NW 0.00 h 24 W/m 3.4 C 4.9 C 3.2 km/h (1 Bft)
30.11.2007 14:00 5.5 C 88 % 1016.3 hPa 0.0 l/m 3.9 km/h (1 Bft) S 0.00 h 39 W/m 3.7 C 5.0 C 7.5 km/h (2 Bft)
30.11.2007 15:00 6.2 C 86 % 1016.3 hPa 0.0 l/m 2.9 km/h (1 Bft) W-SW 0.52 h 79 W/m 4.0 C 6.0 C 5.7 km/h (1 Bft)
30.11.2007 16:00 5.9 C 86 % 1016.5 hPa 0.0 l/m 2.5 km/h (1 Bft) S-SW 0.45 h 26 W/m 3.8 C 5.7 C 4.9 km/h (1 Bft)
30.11.2007 17:00 5.6 C 85 % 1016.4 hPa 0.0 l/m 3.2 km/h (1 Bft) S-SO 0.00 h 0 W/m 3.4 C 5.3 C 5.7 km/h (1 Bft)
30.11.2007 18:00 5.4 C 85 % 1016.4 hPa 0.0 l/m 6.1 km/h (2 Bft) S-SO 0.00 h 0 W/m 3.1 C 4.2 C 9.1 km/h (2 Bft)
30.11.2007 19:00 5.3 C 86 % 1016.3 hPa 0.0 l/m 5.5 km/h (1 Bft) S-SO 0.00 h 0 W/m 3.1 C 4.4 C 8.3 km/h (2 Bft)
30.11.2007 20:00 5.1 C 88 % 1015.9 hPa 0.0 l/m 6.2 km/h (2 Bft) S-SO 0.00 h 0 W/m 3.2 C 3.8 C 9.6 km/h (2 Bft)
30.11.2007 21:00 4.7 C 88 % 1015.7 hPa 0.0 l/m 4.5 km/h (1 Bft) S-SO 0.00 h 0 W/m 2.9 C 3.8 C 6.7 km/h (2 Bft)
30.11.2007 22:00 3.6 C 90 % 1015.5 hPa 0.0 l/m 2.3 km/h (1 Bft) S-SO 0.00 h 0 W/m 2.2 C 3.5 C 4.1 km/h (1 Bft)
30.11.2007 23:00 3.0 C 93 % 1015.4 hPa 0.0 l/m 1.7 km/h (1 Bft) SO 0.00 h 0 W/m 1.9 C 3.0 C 3.1 km/h (1 Bft)
01.12.2007 00:00 2.7 C 94 % 1015.2 hPa 0.0 l/m 1.9 km/h (1 Bft) SO 0.00 h 0 W/m 1.8 C 2.5 C 3.2 km/h (1 Bft)
01.12.2007 01:00 2.3 C 95 % 1014.8 hPa 0.0 l/m 0.0 km/h (0 Bft) N 0.00 h 0 W/m 1.5 C 2.3 C 0.2 km/h (0 Bft)
01.12.2007 02:00 1.5 C 95 % 1014.6 hPa 0.0 l/m 2.8 km/h (1 Bft) SO 0.00 h 0 W/m 0.9 C 1.4 C 4.1 km/h (1 Bft)
01.12.2007 03:00 1.3 C 97 % 1014.2 hPa 0.0 l/m 2.0 km/h (1 Bft) SO 0.00 h 0 W/m 0.8 C 1.1 C 2.8 km/h (1 Bft)
01.12.2007 04:00 1.2 C 97 % 1013.7 hPa 0.0 l/m 2.6 km/h (1 Bft) SO 0.00 h 0 W/m 0.8 C 0.8 C 3.5 km/h (1 Bft)
01.12.2007 05:00 1.1 C 97 % 1013.4 hPa 0.0 l/m 0.4 km/h (0 Bft) SO 0.00 h 0 W/m 0.7 C 1.1 C 1.0 km/h (0 Bft)
01.12.2007 06:00 1.7 C 98 % 1013.3 hPa 0.0 l/m 2.9 km/h (1 Bft) S-SO 0.00 h 0 W/m 1.4 C 1.1 C 5.3 km/h (1 Bft)
01.12.2007 07:00 2.7 C 98 % 1013.1 hPa 0.0 l/m 5.5 km/h (1 Bft) S-SO 0.00 h 5 W/m 2.5 C 1.5 C 9.2 km/h (2 Bft)
01.12.2007 08:00 3.3 C 97 % 1013.4 hPa 0.0 l/m 6.2 km/h (2 Bft) S-SO 0.02 h 23 W/m 2.9 C 1.8 C 10.7 km/h (2 Bft)
01.12.2007 09:00 4.4 C 92 % 1013.8 hPa 0.0 l/m 6.8 km/h (2 Bft) S 0.00 h 70 W/m 3.2 C 2.8 C 12.8 km/h (3 Bft)
01.12.2007 10:00 5.2 C 88 % 1014.2 hPa 0.0 l/m 5.6 km/h (1 Bft) S 0.00 h 77 W/m 3.4 C 4.2 C 11.0 km/h (2 Bft)
01.12.2007 11:00 5.7 C 86 % 1014.5 hPa 0.0 l/m 5.3 km/h (1 Bft) S 0.00 h 63 W/m 3.6 C 4.9 C 10.1 km/h (2 Bft)
01.12.2007 12:00 6.2 C 83 % 1014.1 hPa 0.0 l/m 6.4 km/h (2 Bft) S-SO 0.00 h 60 W/m 3.6 C 5.0 C 11.4 km/h (2 Bft)
01.12.2007 13:00 6.1 C 85 % 1014.4 hPa 0.4 l/m 5.9 km/h (2 Bft) S-SO 0.00 h 65 W/m 3.7 C 5.1 C 10.4 km/h (2 Bft)
01.12.2007 14:00 5.9 C 90 % 1014.4 hPa 0.4 l/m 3.9 km/h (1 Bft) S-SO 0.00 h 55 W/m 4.5 C 5.4 C 8.0 km/h (2 Bft)
01.12.2007 15:00 5.8 C 91 % 1014.8 hPa 0.2 l/m 4.1 km/h (1 Bft) S 0.00 h 27 W/m 4.5 C 5.3 C 8.2 km/h (2 Bft)
01.12.2007 16:00 5.9 C 92 % 1015.2 hPa 0.0 l/m 1.8 km/h (1 Bft) S 0.00 h 13 W/m 4.6 C 5.7 C 3.9 km/h (1 Bft)
01.12.2007 17:00 6.2 C 91 % 1015.4 hPa 0.0 l/m 1.4 km/h (1 Bft) S-SW 0.00 h 0 W/m 4.8 C 6.1 C 3.6 km/h (1 Bft)
01.12.2007 18:00 6.2 C 91 % 1015.7 hPa 0.0 l/m 0.5 km/h (0 Bft) SW 0.00 h 0 W/m 4.9 C 6.2 C 1.8 km/h (1 Bft)
01.12.2007 19:00 6.8 C 94 % 1016.0 hPa 0.4 l/m 10.2 km/h (2 Bft) W 0.00 h 0 W/m 5.9 C 5.0 C 15.7 km/h (3 Bft)
01.12.2007 20:00 7.3 C 94 % 1016.1 hPa 0.4 l/m 9.0 km/h (2 Bft) W 0.00 h 0 W/m 6.4 C 5.8 C 13.7 km/h (3 Bft)
01.12.2007 21:00 7.0 C 94 % 1016.2 hPa 0.0 l/m 1.3 km/h (1 Bft) S-SW 0.00 h 0 W/m 6.1 C 7.0 C 3.2 km/h (1 Bft)
01.12.2007 22:00 6.5 C 95 % 1016.5 hPa 0.0 l/m 1.9 km/h (1 Bft) W-SW 0.00 h 0 W/m 5.7 C 6.4 C 3.9 km/h (1 Bft)
01.12.2007 23:00 6.0 C 95 % 1016.6 hPa 0.0 l/m 1.1 km/h (1 Bft) SW 0.00 h 0 W/m 5.2 C 6.0 C 2.6 km/h (1 Bft)
02.12.2007 00:00 5.2 C 95 % 1017.0 hPa 0.0 l/m 0.7 km/h (0 Bft) S 0.00 h 0 W/m 4.5 C 5.2 C 1.7 km/h (1 Bft)
02.12.2007 01:00 4.5 C 96 % 1017.2 hPa 0.0 l/m 1.9 km/h (1 Bft) S-SO 0.00 h 0 W/m 3.8 C 4.4 C 3.4 km/h (1 Bft)
02.12.2007 02:00 3.8 C 96 % 1017.4 hPa 0.0 l/m 1.8 km/h (1 Bft) S-SO 0.00 h 0 W/m 3.3 C 3.7 C 3.6 km/h (1 Bft)
02.12.2007 03:00 3.5 C 97 % 1017.6 hPa 0.0 l/m 1.9 km/h (1 Bft) S-SO 0.00 h 0 W/m 3.0 C 3.2 C 3.4 km/h (1 Bft)
02.12.2007 04:00 4.4 C 95 % 1017.2 hPa 0.0 l/m 7.9 km/h (2 Bft) W-SW 0.00 h 0 W/m 3.7 C 2.6 C 13.3 km/h (3 Bft)
02.12.2007 05:00 6.3 C 81 % 1017.0 hPa 0.0 l/m 5.0 km/h (1 Bft) S 0.00 h 0 W/m 3.2 C 5.5 C 9.2 km/h (2 Bft)
02.12.2007 06:00 7.0 C 75 % 1016.8 hPa 0.0 l/m 7.1 km/h (2 Bft) SW 0.00 h 0 W/m 2.9 C 5.7 C 12.9 km/h (3 Bft)
02.12.2007 07:00 7.6 C 73 % 1016.6 hPa 0.0 l/m 6.0 km/h (2 Bft) SW 0.00 h 0 W/m 3.1 C 6.8 C 10.6 km/h (2 Bft)
02.12.2007 08:00 8.1 C 74 % 1016.4 hPa 0.2 l/m 7.4 km/h (2 Bft) SW 0.00 h 18 W/m 3.8 C 7.0 C 12.4 km/h (3 Bft)
02.12.2007 09:00 8.2 C 74 % 1016.3 hPa 0.0 l/m 8.8 km/h (2 Bft) SW 0.00 h 47 W/m 3.8 C 6.9 C 15.2 km/h (3 Bft)
02.12.2007 10:00 9.1 C 69 % 1016.3 hPa 0.0 l/m 8.5 km/h (2 Bft) SW 0.00 h 85 W/m 3.8 C 7.9 C 15.7 km/h (3 Bft)
02.12.2007 11:00 9.0 C 73 % 1015.9 hPa 0.0 l/m 9.3 km/h (2 Bft) SW 0.00 h 59 W/m 4.4 C 7.6 C 17.5 km/h (3 Bft)
02.12.2007 12:00 9.4 C 71 % 1014.8 hPa 0.0 l/m 12.0 km/h (2 Bft) SW 0.00 h 74 W/m 4.4 C 7.6 C 21.7 km/h (4 Bft)
02.12.2007 13:00 10.1 C 69 % 1013.4 hPa 0.0 l/m 10.1 km/h (2 Bft) SW 0.00 h 98 W/m 4.7 C 9.5 C 18.7 km/h (3 Bft)
02.12.2007 14:00 10.7 C 67 % 1012.2 hPa 0.0 l/m 8.0 km/h (2 Bft) SW 0.00 h 56 W/m 4.8 C 10.7 C 14.6 km/h (3 Bft)
02.12.2007 15:00 10.8 C 66 % 1011.3 hPa 0.0 l/m 10.3 km/h (2 Bft) SW 0.00 h 22 W/m 4.7 C 10.8 C 17.6 km/h (3 Bft)
02.12.2007 16:00 10.1 C 69 % 1010.4 hPa 0.0 l/m 8.0 km/h (2 Bft) SW 0.00 h 7 W/m 4.7 C 9.7 C 15.2 km/h (3 Bft)
02.12.2007 17:00 9.8 C 70 % 1009.3 hPa 0.0 l/m 8.1 km/h (2 Bft) SW 0.00 h 0 W/m 4.7 C 9.0 C 15.5 km/h (3 Bft)
02.12.2007 18:00 9.7 C 72 % 1008.2 hPa 0.6 l/m 12.0 km/h (2 Bft) W-SW 0.00 h 0 W/m 4.8 C 8.6 C 20.1 km/h (4 Bft)
02.12.2007 19:00 8.6 C 78 % 1007.3 hPa 0.4 l/m 19.7 km/h (3 Bft) W-SW 0.00 h 0 W/m 5.1 C 5.7 C 33.4 km/h (5 Bft)
02.12.2007 20:00 8.2 C 81 % 1005.5 hPa 0.2 l/m 19.8 km/h (4 Bft) SW 0.00 h 0 W/m 5.2 C 5.2 C 32.2 km/h (5 Bft)
02.12.2007 21:00 8.1 C 82 % 1003.9 hPa 0.4 l/m 18.8 km/h (3 Bft) W-SW 0.00 h 0 W/m 5.1 C 5.1 C 30.4 km/h (5 Bft)
02.12.2007 22:00 7.5 C 85 % 1002.3 hPa 0.6 l/m 16.0 km/h (3 Bft) SW 0.00 h 0 W/m 5.2 C 4.9 C 27.4 km/h (4 Bft)
02.12.2007 23:00 8.0 C 81 % 1000.5 hPa 0.2 l/m 18.8 km/h (3 Bft) SW 0.00 h 0 W/m 4.9 C 5.0 C 31.3 km/h (5 Bft)
Min-Datum _ 28.11.07 27.11.07 02.12.07 - 26.11.07 - - - 28.11.07 28.11.07 26.11.07
_ Min-Zeit 08:05 13:59 23:45 - 14:16 - - - 08:05 08:04 23:07
Minimum _ -3.2 C 64 % 1000.0 hPa - 0.0 km/h (0 Bft) - - - -4.2 C -5.3 C 0.0 km/h (0 Bft)
Max-Datum _ 02.12.07 29.11.07 27.11.07 02.12.07 02.12.07 - 26.11.07 26.11.07 01.12.07 02.12.07 02.12.07
_ Max-Zeit 15:09 08:55 08:15 18:31 19:51 - 08:59 12:49 19:47 15:08 19:51
Maximum _ 11.1 C 99 % 1030.6 hPa 0.6 l/m 33.9 km/h
W-SW (5 Bft)
- 0.02 h 427 W/m 6.6 C 11.1 C 60.8 km/h
W-SW (7 Bft)
Durchschnitt _ 3.0 C 86 % 1020.0 hPa #5.2 l/m 4.6 km/h (1 Bft) S-SO #15:48 h 88 W/m 0.9 C 2.3 C 7.8 km/h (2 Bft)
© Kaiko 2007